createdAt,value
2017-06-18T00:00:15.772Z,79.20
2017-06-18T00:02:43.232Z,79.40
2017-06-18T00:05:10.720Z,79.50
2017-06-18T00:07:38.175Z,79.40
2017-06-18T00:10:05.620Z,79.40
2017-06-18T00:12:33.080Z,79.20
2017-06-18T00:15:00.536Z,79.10
2017-06-18T00:17:28.001Z,79.10
2017-06-18T00:19:55.496Z,79.10
2017-06-18T00:22:22.944Z,79.10
2017-06-18T00:24:50.399Z,79.20
2017-06-18T00:27:18.381Z,79.10
2017-06-18T00:29:45.827Z,79.20
2017-06-18T00:32:13.281Z,79.40
2017-06-18T00:34:40.731Z,79.50
2017-06-18T00:37:08.189Z,79.60
2017-06-18T00:39:35.637Z,79.60
2017-06-18T00:42:03.101Z,79.60
2017-06-18T00:44:30.596Z,79.70
2017-06-18T00:46:58.052Z,79.80
2017-06-18T00:49:25.499Z,80.00
2017-06-18T00:51:52.964Z,80.10
2017-06-18T00:54:20.408Z,80.20
2017-06-18T00:56:47.868Z,80.30
2017-06-18T00:59:15.332Z,80.40
2017-06-18T01:01:42.776Z,80.70
2017-06-18T01:04:10.240Z,80.80
2017-06-18T01:06:37.698Z,80.80
2017-06-18T01:09:05.158Z,81.00
2017-06-18T01:11:32.617Z,81.00
2017-06-18T01:14:00.072Z,81.00
2017-06-18T01:16:27.631Z,80.90
2017-06-18T01:18:55.085Z,81.40
2017-06-18T01:21:22.524Z,81.20
2017-06-18T01:23:49.984Z,81.10
2017-06-18T01:26:17.440Z,81.10
2017-06-18T01:28:44.897Z,81.50
2017-06-18T01:31:12.352Z,81.50
2017-06-18T01:33:39.810Z,81.50
2017-06-18T01:36:07.271Z,81.50
2017-06-18T01:38:34.715Z,81.50
2017-06-18T01:41:02.164Z,81.70
2017-06-18T01:43:30.388Z,82.80
2017-06-18T01:45:57.848Z,82.10
2017-06-18T01:48:33.235Z,82.40
2017-06-18T01:51:00.684Z,82.60
2017-06-18T01:53:28.140Z,82.70
2017-06-18T01:55:55.601Z,82.90
2017-06-18T01:58:23.059Z,82.70
2017-06-18T02:00:50.516Z,82.90
2017-06-18T02:03:17.968Z,82.70
2017-06-18T02:05:45.420Z,82.90
2017-06-18T02:08:12.877Z,83.00
2017-06-18T02:10:40.336Z,82.90
2017-06-18T02:13:07.808Z,83.00
2017-06-18T02:15:35.260Z,83.20
2017-06-18T02:18:02.720Z,83.40
2017-06-18T02:20:30.176Z,83.50
2017-06-18T02:22:57.629Z,83.80
2017-06-18T02:25:25.088Z,83.90
2017-06-18T02:27:52.543Z,83.90
2017-06-18T02:30:20.003Z,84.30
2017-06-18T02:32:47.469Z,84.20
2017-06-18T02:35:14.921Z,84.20
2017-06-18T02:37:42.381Z,84.30
2017-06-18T02:40:09.840Z,84.30
2017-06-18T02:42:37.300Z,84.60
2017-06-18T02:45:04.764Z,84.60
2017-06-18T02:47:32.220Z,84.90
2017-06-18T02:49:59.682Z,84.90
2017-06-18T02:52:27.136Z,85.20
2017-06-18T02:54:54.580Z,85.30
2017-06-18T02:57:22.036Z,85.20
2017-06-18T02:59:49.488Z,85.50
2017-06-18T03:02:16.944Z,85.80
2017-06-18T03:04:44.399Z,86.00
2017-06-18T03:07:11.856Z,85.80
2017-06-18T03:09:39.304Z,85.70
2017-06-18T03:12:06.761Z,85.70
2017-06-18T03:14:34.220Z,85.70
2017-06-18T03:17:01.676Z,85.80
2017-06-18T03:19:29.132Z,85.90
2017-06-18T03:21:57.519Z,86.10
2017-06-18T03:24:25.052Z,86.10
2017-06-18T03:26:52.509Z,86.20
2017-06-18T03:29:19.968Z,86.10
2017-06-18T03:31:47.443Z,86.10
2017-06-18T03:34:14.907Z,86.00
2017-06-18T03:36:42.372Z,86.00
2017-06-18T03:39:09.832Z,86.10
2017-06-18T03:41:37.284Z,86.00
2017-06-18T03:44:04.752Z,86.00
2017-06-18T03:46:32.204Z,86.10
2017-06-18T03:48:59.663Z,86.80
2017-06-18T03:51:27.120Z,86.30
2017-06-18T03:53:54.568Z,86.40
2017-06-18T03:56:22.075Z,86.70
2017-06-18T03:58:49.528Z,87.00
2017-06-18T04:01:16.993Z,87.40
2017-06-18T04:03:45.213Z,87.30
2017-06-18T04:06:12.680Z,87.10
2017-06-18T04:08:40.144Z,87.50
2017-06-18T04:11:07.615Z,87.80
2017-06-18T04:13:35.088Z,87.80
2017-06-18T04:16:02.559Z,87.80
2017-06-18T04:18:30.796Z,88.30
2017-06-18T04:20:58.260Z,88.20
2017-06-18T04:23:25.724Z,88.70
2017-06-18T04:25:53.172Z,88.70
2017-06-18T04:28:20.636Z,88.30
2017-06-18T04:30:48.100Z,88.50
2017-06-18T04:33:15.564Z,88.40
2017-06-18T04:35:43.031Z,88.20
2017-06-18T04:38:10.492Z,88.20
2017-06-18T04:40:38.727Z,88.00
2017-06-18T04:43:06.192Z,88.00
2017-06-18T04:45:33.657Z,87.80
2017-06-18T04:48:01.128Z,88.40
2017-06-18T04:50:28.596Z,87.60
2017-06-18T04:52:56.052Z,87.60
2017-06-18T04:55:23.516Z,87.80
2017-06-18T04:57:50.975Z,88.20
2017-06-18T05:00:19.208Z,88.30
2017-06-18T05:02:46.677Z,88.30
2017-06-18T05:05:14.142Z,88.30
2017-06-18T05:07:41.609Z,88.30
2017-06-18T05:10:09.068Z,88.90
2017-06-18T05:12:36.537Z,88.50
2017-06-18T05:15:03.987Z,88.70
2017-06-18T05:17:31.442Z,88.30
2017-06-18T05:19:58.976Z,88.20
2017-06-18T05:22:26.426Z,87.90
2017-06-18T05:24:53.890Z,87.70
2017-06-18T05:27:21.351Z,87.60
2017-06-18T05:29:48.808Z,87.60
2017-06-18T05:32:16.269Z,87.60
2017-06-18T05:34:43.741Z,87.60
2017-06-18T05:37:11.197Z,87.50
2017-06-18T05:39:38.661Z,87.50
2017-06-18T05:42:06.126Z,87.30
2017-06-18T05:44:33.570Z,87.20
2017-06-18T05:47:01.028Z,87.10
2017-06-18T05:49:28.483Z,86.80
2017-06-18T05:51:55.986Z,86.80
2017-06-18T05:54:24.196Z,86.10
2017-06-18T05:56:51.667Z,86.10
2017-06-18T05:59:19.136Z,85.80
2017-06-18T06:01:46.604Z,85.40
2017-06-18T06:04:14.068Z,85.90
2017-06-18T06:06:41.524Z,85.10
2017-06-18T06:09:08.983Z,84.80
2017-06-18T06:11:36.448Z,84.70
2017-06-18T06:14:03.909Z,84.40
2017-06-18T06:16:31.395Z,84.20
2017-06-18T06:18:58.852Z,83.90
2017-06-18T06:21:26.313Z,83.80
2017-06-18T06:23:53.771Z,83.40
2017-06-18T06:26:21.227Z,83.30
2017-06-18T06:28:48.700Z,83.10
2017-06-18T06:31:16.167Z,82.60
2017-06-18T06:33:43.633Z,82.50
2017-06-18T06:36:11.215Z,82.10
2017-06-18T06:38:38.676Z,81.50
2017-06-18T06:41:06.131Z,81.30
2017-06-18T06:43:33.584Z,81.00
2017-06-18T06:46:01.049Z,80.60
2017-06-18T06:48:28.505Z,80.20
2017-06-18T06:50:55.953Z,80.30
2017-06-18T06:53:23.417Z,80.10
2017-06-18T06:55:50.903Z,79.70
2017-06-18T06:58:18.364Z,79.40
2017-06-18T07:00:45.829Z,78.80
2017-06-18T07:03:14.179Z,78.30
2017-06-18T07:05:41.633Z,77.80
2017-06-18T07:08:09.084Z,78.10
2017-06-18T07:10:36.544Z,77.50
2017-06-18T07:13:04.004Z,77.60
2017-06-18T07:15:31.472Z,76.90
2017-06-18T07:17:58.924Z,77.10
2017-06-18T07:20:26.384Z,77.20
2017-06-18T07:22:53.845Z,76.50
2017-06-18T07:25:21.296Z,76.00
2017-06-18T07:27:48.748Z,75.00
2017-06-18T07:30:16.214Z,74.60
2017-06-18T07:32:43.678Z,74.50
2017-06-18T07:35:11.116Z,74.20
2017-06-18T07:37:38.576Z,72.50
2017-06-18T07:40:06.032Z,72.40
2017-06-18T07:42:33.492Z,71.80
2017-06-18T07:45:00.956Z,71.90
2017-06-18T07:47:28.432Z,70.60
2017-06-18T07:49:55.887Z,69.80
2017-06-18T07:52:23.344Z,69.60
2017-06-18T07:54:50.789Z,69.40
2017-06-18T07:57:19.435Z,69.40
2017-06-18T07:59:47.652Z,68.70
2017-06-18T08:02:15.112Z,68.70
2017-06-18T08:04:42.556Z,68.10
2017-06-18T08:07:10.012Z,68.20
2017-06-18T08:09:37.472Z,67.80
2017-06-18T08:12:04.925Z,67.40
2017-06-18T08:14:32.382Z,67.00
2017-06-18T08:16:59.834Z,66.90
2017-06-18T08:19:27.279Z,66.20
2017-06-18T08:21:54.728Z,65.60
2017-06-18T08:24:22.936Z,65.70
2017-06-18T08:26:50.395Z,65.50
2017-06-18T08:29:17.851Z,65.70
2017-06-18T08:31:45.305Z,65.10
2017-06-18T08:34:12.820Z,65.40
2017-06-18T08:36:40.252Z,66.70
2017-06-18T08:39:07.706Z,66.00
2017-06-18T08:41:35.156Z,65.90
2017-06-18T08:44:02.612Z,65.10
2017-06-18T08:46:30.059Z,65.40
2017-06-18T08:48:57.539Z,64.60
2017-06-18T08:51:24.992Z,63.50
2017-06-18T08:53:52.432Z,62.20
2017-06-18T08:56:19.889Z,62.50
2017-06-18T08:58:47.376Z,61.40
2017-06-18T09:01:14.808Z,61.60
2017-06-18T09:03:42.248Z,61.10
2017-06-18T09:06:09.693Z,60.80
2017-06-18T09:08:37.148Z,60.70
2017-06-18T09:11:05.369Z,59.80
2017-06-18T09:13:32.824Z,59.80
2017-06-18T09:16:00.269Z,59.80
2017-06-18T09:18:27.732Z,59.90
2017-06-18T09:20:55.188Z,59.00
2017-06-18T09:23:22.633Z,59.20
2017-06-18T09:25:50.081Z,58.00
2017-06-18T09:28:17.544Z,57.90
2017-06-18T09:30:45.000Z,58.30
2017-06-18T09:33:12.444Z,58.40
2017-06-18T09:35:39.901Z,57.10
2017-06-18T09:38:08.120Z,57.10
2017-06-18T09:40:35.572Z,57.10
2017-06-18T09:43:03.023Z,55.70
2017-06-18T09:45:30.468Z,56.80
2017-06-18T09:47:57.919Z,56.20
2017-06-18T09:50:25.368Z,57.10
2017-06-18T09:52:53.598Z,56.50
2017-06-18T09:55:21.040Z,56.50
2017-06-18T09:57:48.493Z,56.40
2017-06-18T10:00:15.984Z,56.40
2017-06-18T10:02:43.432Z,56.00
2017-06-18T10:05:10.885Z,54.80
2017-06-18T10:07:38.337Z,55.70
2017-06-18T10:10:05.794Z,55.10
2017-06-18T10:12:33.253Z,54.90
2017-06-18T10:15:00.712Z,55.80
2017-06-18T10:17:28.169Z,55.60
2017-06-18T10:19:55.624Z,55.20
2017-06-18T10:22:23.079Z,54.60
2017-06-18T10:24:50.525Z,53.90
2017-06-18T10:27:19.696Z,53.50
2017-06-18T10:29:47.151Z,53.30
2017-06-18T10:32:15.369Z,52.80
2017-06-18T10:34:42.820Z,52.80
2017-06-18T10:37:10.277Z,52.70
2017-06-18T10:39:37.733Z,51.50
2017-06-18T10:42:05.203Z,51.90
2017-06-18T10:44:32.647Z,51.50
2017-06-18T10:47:00.092Z,51.00
2017-06-18T10:49:27.604Z,50.10
2017-06-18T10:51:55.056Z,50.00
2017-06-18T10:54:22.508Z,50.90
2017-06-18T10:56:50.021Z,50.50
2017-06-18T10:59:17.468Z,50.40
2017-06-18T11:01:45.692Z,50.70
2017-06-18T11:04:13.140Z,50.70
2017-06-18T11:06:40.588Z,49.50
2017-06-18T11:09:08.048Z,50.30
2017-06-18T11:11:35.503Z,49.70
2017-06-18T11:14:02.967Z,50.20
2017-06-18T11:16:30.408Z,48.70
2017-06-18T11:18:57.867Z,48.30
2017-06-18T11:21:25.313Z,45.70
2017-06-18T11:23:52.760Z,44.90
2017-06-18T11:26:20.222Z,44.00
2017-06-18T11:28:47.675Z,42.90
2017-06-18T11:31:15.124Z,43.20
2017-06-18T11:33:43.356Z,43.50
2017-06-18T11:36:10.797Z,43.50
2017-06-18T11:38:38.244Z,43.70
2017-06-18T11:41:05.688Z,43.70
2017-06-18T11:43:33.133Z,43.20
2017-06-18T11:46:01.345Z,43.90
2017-06-18T11:48:28.802Z,43.90
2017-06-18T11:50:56.252Z,44.20
2017-06-18T11:53:23.705Z,44.10
2017-06-18T11:55:51.157Z,43.90
2017-06-18T11:58:18.604Z,44.50
2017-06-18T12:00:46.820Z,44.90
2017-06-18T12:03:14.273Z,44.90
2017-06-18T12:05:41.725Z,45.00
2017-06-18T12:08:09.164Z,45.10
2017-06-18T12:10:36.652Z,43.30
2017-06-18T12:13:04.105Z,43.60
2017-06-18T12:15:31.548Z,41.80
2017-06-18T12:17:58.992Z,41.70
2017-06-18T12:20:26.439Z,41.80
2017-06-18T12:22:54.652Z,42.40
2017-06-18T12:25:22.096Z,42.30
2017-06-18T12:27:49.545Z,42.40
2017-06-18T12:30:16.993Z,42.50
2017-06-18T12:32:44.444Z,42.10
2017-06-18T12:35:12.660Z,40.60
2017-06-18T12:37:40.100Z,40.60
2017-06-18T12:40:07.548Z,40.10
2017-06-18T12:42:34.996Z,39.20
2017-06-18T12:45:03.252Z,36.90
2017-06-18T12:47:30.683Z,36.80
2017-06-18T12:49:58.137Z,36.70
2017-06-18T12:52:25.612Z,35.90
2017-06-18T12:54:53.062Z,33.40
2017-06-18T12:57:21.437Z,32.40
2017-06-18T12:59:48.879Z,32.70
2017-06-18T13:02:16.339Z,32.70
2017-06-18T13:04:43.780Z,32.90
2017-06-18T13:07:11.228Z,31.80
2017-06-18T13:09:38.736Z,31.40
2017-06-18T13:12:06.176Z,32.40
2017-06-18T13:14:33.628Z,32.20
2017-06-18T13:17:01.084Z,32.70
2017-06-18T13:19:28.541Z,34.00
2017-06-18T13:21:55.997Z,33.90
2017-06-18T13:24:23.457Z,33.70
2017-06-18T13:26:50.915Z,32.90
2017-06-18T13:29:18.374Z,32.30
2017-06-18T13:31:45.812Z,29.70
2017-06-18T13:34:13.266Z,31.40
2017-06-18T13:36:40.713Z,32.30
2017-06-18T13:39:08.152Z,32.30
2017-06-18T13:41:35.603Z,31.20
2017-06-18T13:44:03.056Z,30.70
2017-06-18T13:46:30.508Z,31.10
2017-06-18T13:48:57.962Z,31.80
2017-06-18T13:51:25.397Z,32.90
2017-06-18T13:53:52.844Z,33.80
2017-06-18T13:56:20.302Z,35.00
2017-06-18T13:58:47.747Z,35.80
2017-06-18T14:01:15.196Z,35.40
2017-06-18T14:03:42.653Z,35.00
2017-06-18T14:06:10.093Z,34.20
2017-06-18T14:08:38.317Z,32.00
2017-06-18T14:11:05.780Z,31.90
2017-06-18T14:13:33.232Z,31.80
2017-06-18T14:16:00.688Z,31.20
2017-06-18T14:18:28.135Z,30.30
2017-06-18T14:20:55.585Z,30.30
2017-06-18T14:23:23.037Z,29.80
2017-06-18T14:25:50.489Z,29.80
2017-06-18T14:28:18.700Z,29.70
2017-06-18T14:30:46.152Z,29.70
2017-06-18T14:33:13.604Z,29.30
2017-06-18T14:35:41.056Z,29.00
2017-06-18T14:38:08.500Z,29.20
2017-06-18T14:40:35.952Z,29.30
2017-06-18T14:43:04.168Z,31.20
2017-06-18T14:45:31.621Z,31.20
2017-06-18T14:47:59.178Z,32.20
2017-06-18T14:50:26.612Z,32.50
2017-06-18T14:52:54.060Z,31.80
2017-06-18T14:55:22.271Z,30.30
2017-06-18T14:57:49.725Z,30.30
2017-06-18T15:00:17.173Z,30.00
2017-06-18T15:02:44.624Z,29.40
2017-06-18T15:05:12.080Z,28.80
2017-06-18T15:07:39.523Z,28.30
2017-06-18T15:10:06.980Z,27.40
2017-06-18T15:12:35.204Z,27.00
2017-06-18T15:15:02.660Z,26.90
2017-06-18T15:17:30.116Z,26.50
2017-06-18T15:19:57.568Z,26.70
2017-06-18T15:23:02.181Z,26.70
2017-06-18T15:25:29.633Z,26.70
2017-06-18T15:27:57.084Z,26.70
2017-06-18T15:30:24.524Z,26.70
2017-06-18T15:32:52.756Z,26.60
2017-06-18T15:35:20.213Z,26.60
2017-06-18T15:37:47.662Z,26.10
2017-06-18T15:40:15.105Z,25.80
2017-06-18T15:42:42.556Z,25.40
2017-06-18T15:45:10.008Z,25.40
2017-06-18T15:47:37.448Z,25.10
2017-06-18T15:50:05.665Z,25.00
2017-06-18T15:52:33.108Z,25.00
2017-06-18T15:55:00.561Z,25.50
2017-06-18T15:57:28.012Z,25.90
2017-06-18T15:59:55.464Z,26.10
2017-06-18T16:02:23.689Z,25.60
2017-06-18T16:04:51.148Z,26.10
2017-06-18T16:07:18.690Z,25.10
2017-06-18T16:09:46.115Z,25.00
2017-06-18T16:12:14.336Z,25.10
2017-06-18T16:14:41.788Z,25.10
2017-06-18T16:17:09.331Z,24.90
2017-06-18T16:19:36.767Z,24.80
2017-06-18T16:22:04.992Z,24.70
2017-06-18T16:24:32.444Z,24.70
2017-06-18T16:26:59.900Z,24.70
2017-06-18T16:29:27.356Z,24.60
2017-06-18T16:31:54.805Z,24.30
2017-06-18T16:34:22.264Z,24.30
2017-06-18T16:36:49.708Z,24.10
2017-06-18T16:39:17.160Z,23.90
2017-06-18T16:41:44.616Z,23.70
2017-06-18T16:44:12.828Z,23.80
2017-06-18T16:46:40.284Z,23.80
2017-06-18T16:49:07.729Z,23.80
2017-06-18T16:51:35.181Z,24.20
2017-06-18T16:54:02.660Z,24.70
2017-06-18T16:56:30.116Z,25.00
2017-06-18T16:58:57.569Z,25.50
2017-06-18T17:01:25.033Z,25.00
2017-06-18T17:03:52.484Z,25.20
2017-06-18T17:06:19.968Z,25.10
2017-06-18T17:08:47.416Z,25.20
2017-06-18T17:11:14.861Z,25.60
2017-06-18T17:13:42.320Z,25.80
2017-06-18T17:16:09.775Z,26.50
2017-06-18T17:18:37.232Z,26.30
2017-06-18T17:21:10.352Z,26.80
2017-06-18T17:23:37.808Z,26.90
2017-06-18T17:26:05.264Z,26.90
2017-06-18T17:28:32.721Z,26.90
2017-06-18T17:31:00.172Z,26.70
2017-06-18T17:33:27.615Z,26.60
2017-06-18T17:35:55.060Z,26.40
2017-06-18T17:38:22.512Z,26.80
2017-06-18T17:40:49.964Z,27.10
2017-06-18T17:43:17.416Z,27.30
2017-06-18T17:45:44.861Z,27.30
2017-06-18T17:48:12.307Z,27.30
2017-06-18T17:50:40.521Z,27.20
2017-06-18T17:53:07.977Z,27.20
2017-06-18T17:55:35.431Z,27.30
2017-06-18T17:58:02.881Z,27.40
2017-06-18T18:00:30.320Z,27.60
2017-06-18T18:02:58.591Z,28.20
2017-06-18T18:05:26.814Z,28.60
2017-06-18T18:07:54.261Z,28.60
2017-06-18T18:10:21.747Z,29.00
2017-06-18T18:12:49.196Z,29.40
2017-06-18T18:15:16.652Z,29.60
2017-06-18T18:17:44.201Z,30.00
2017-06-18T18:20:11.672Z,30.40
2017-06-18T18:22:39.120Z,30.60
2017-06-18T18:25:06.570Z,31.00
2017-06-18T18:27:34.011Z,31.60
2017-06-18T18:30:01.450Z,32.10
2017-06-18T18:32:28.896Z,33.10
2017-06-18T18:34:56.345Z,33.90
2017-06-18T18:37:23.792Z,34.80
2017-06-18T18:39:51.231Z,35.60
2017-06-18T18:42:18.692Z,36.40
2017-06-18T18:44:46.171Z,37.20
2017-06-18T18:47:13.631Z,37.90
2017-06-18T18:49:41.082Z,38.60
2017-06-18T18:52:08.536Z,39.20
2017-06-18T18:54:35.995Z,39.80
2017-06-18T18:57:03.443Z,40.50
2017-06-18T18:59:30.900Z,40.90
2017-06-18T19:01:58.344Z,41.60
2017-06-18T19:04:25.800Z,42.10
2017-06-18T19:06:53.260Z,42.60
2017-06-18T19:09:20.709Z,42.90
2017-06-18T19:11:48.157Z,43.30
2017-06-18T19:14:15.616Z,43.70
2017-06-18T19:16:43.069Z,44.00
2017-06-18T19:19:10.531Z,44.60
2017-06-18T19:21:37.979Z,44.90
2017-06-18T19:24:05.406Z,45.20
2017-06-18T19:26:32.865Z,45.70
2017-06-18T19:29:00.316Z,46.20
2017-06-18T19:31:27.760Z,46.60
2017-06-18T19:33:55.208Z,47.20
2017-06-18T19:36:22.669Z,47.40
2017-06-18T19:38:50.128Z,47.80
2017-06-18T19:41:17.576Z,48.20
2017-06-18T19:43:45.028Z,48.80
2017-06-18T19:46:13.468Z,49.30
2017-06-18T19:48:40.928Z,49.70
2017-06-18T19:51:09.140Z,50.90
2017-06-18T19:53:36.613Z,50.80
2017-06-18T19:56:04.056Z,51.10
2017-06-18T19:58:31.511Z,51.40
2017-06-18T20:00:58.983Z,51.80
2017-06-18T20:03:26.428Z,52.20
2017-06-18T20:05:53.872Z,52.60
2017-06-18T20:08:21.319Z,53.00
2017-06-18T20:10:48.764Z,54.00
2017-06-18T20:13:16.980Z,55.30
2017-06-18T20:15:44.437Z,55.20
2017-06-18T20:18:11.997Z,55.50
2017-06-18T20:20:39.424Z,55.60
2017-06-18T20:23:07.645Z,55.70
2017-06-18T20:25:35.100Z,55.60
2017-06-18T20:28:02.554Z,55.80
2017-06-18T20:30:30.015Z,56.00
2017-06-18T20:32:57.468Z,56.20
2017-06-18T20:35:24.922Z,56.40
2017-06-18T20:37:52.381Z,56.90
2017-06-18T20:40:19.844Z,57.20
2017-06-18T20:42:47.300Z,57.90
2017-06-18T20:45:14.743Z,58.00
2017-06-18T20:47:42.196Z,58.00
2017-06-18T20:50:09.640Z,58.40
2017-06-18T20:52:37.117Z,58.70
2017-06-18T20:55:04.559Z,59.30
2017-06-18T20:57:32.011Z,59.60
2017-06-18T20:59:59.456Z,59.80
2017-06-18T21:02:27.679Z,60.70
2017-06-18T21:04:55.117Z,60.70
2017-06-18T21:07:22.568Z,61.30
2017-06-18T21:09:50.032Z,61.40
2017-06-18T21:12:17.480Z,62.40
2017-06-18T21:14:44.940Z,62.20
2017-06-18T21:17:12.392Z,62.60
2017-06-18T21:19:39.856Z,62.40
2017-06-18T21:22:07.292Z,62.60
2017-06-18T21:24:35.508Z,63.20
2017-06-18T21:27:02.969Z,63.10
2017-06-18T21:29:30.772Z,63.80
2017-06-18T21:31:58.212Z,63.90
2017-06-18T21:34:25.668Z,64.30
2017-06-18T21:36:53.117Z,64.40
2017-06-18T21:39:20.667Z,65.00
2017-06-18T21:41:48.108Z,64.90
2017-06-18T21:44:15.564Z,65.10
2017-06-18T21:46:43.012Z,65.30
2017-06-18T21:49:10.465Z,65.30
2017-06-18T21:51:38.687Z,66.50
2017-06-18T21:54:06.131Z,66.40
2017-06-18T21:56:33.616Z,66.30
2017-06-18T21:59:01.062Z,66.10
2017-06-18T22:01:28.522Z,66.10
2017-06-18T22:03:55.958Z,66.20
2017-06-18T22:06:23.402Z,66.50
2017-06-18T22:08:50.856Z,66.90
2017-06-18T22:11:18.296Z,67.50
2017-06-18T22:13:46.502Z,67.80
2017-06-18T22:16:13.942Z,67.60
2017-06-18T22:18:41.404Z,67.90
2017-06-18T22:21:08.852Z,67.80
2017-06-18T22:23:36.308Z,68.40
2017-06-18T22:26:04.529Z,69.00
2017-06-18T22:28:31.984Z,68.90
2017-06-18T22:30:59.441Z,68.80
2017-06-18T22:33:26.883Z,68.80
2017-06-18T22:35:54.344Z,69.30
2017-06-18T22:38:21.843Z,69.60
2017-06-18T22:40:49.281Z,69.50
2017-06-18T22:43:16.736Z,69.70
2017-06-18T22:45:44.285Z,69.90
2017-06-18T22:48:11.728Z,69.30
2017-06-18T22:50:39.187Z,69.30
2017-06-18T22:53:06.639Z,69.40
2017-06-18T22:55:34.084Z,69.60
2017-06-18T22:58:02.305Z,69.70
2017-06-18T23:00:29.764Z,69.70
2017-06-18T23:02:57.203Z,70.00
2017-06-18T23:05:24.663Z,70.40
2017-06-18T23:07:52.122Z,70.40
2017-06-18T23:10:19.685Z,70.60
2017-06-18T23:12:47.129Z,70.90
2017-06-18T23:15:14.583Z,71.10
2017-06-18T23:17:42.044Z,71.50
2017-06-18T23:20:09.504Z,71.80
2017-06-18T23:22:36.961Z,72.50
2017-06-18T23:25:04.408Z,72.40
2017-06-18T23:27:32.176Z,72.60
2017-06-18T23:29:59.628Z,72.60
2017-06-18T23:32:27.080Z,72.10
2017-06-18T23:34:54.539Z,71.90
2017-06-18T23:37:21.984Z,71.90
2017-06-18T23:39:49.440Z,72.00
2017-06-18T23:42:17.665Z,72.50
2017-06-18T23:44:45.121Z,72.40
2017-06-18T23:47:12.578Z,73.20
2017-06-18T23:49:40.033Z,73.00
2017-06-18T23:52:07.481Z,72.70
2017-06-18T23:54:34.967Z,73.10
2017-06-18T23:57:02.412Z,72.60
2017-06-18T23:59:29.896Z,72.70
